Time;durP1;ratioP1;P1;durP2;ratioP2;P2;SDS_P1;SDS_P2;PMS_P1;PMS_P2;Temp;Humidity;BMP_temperature;BMP_pressure;BME280_temperature;BME280_humidity;BME280_pressure;Samples;Min_cycle;Max_cycle;Signal;HPM_P1;HPM_P2
2022/08/05 00:02:17;;;;;;;9.57;8.68;;;23.40;67.90;;;;;;6067829;23;20243;-91
2022/08/05 00:04:52;;;;;;;9.70;8.80;;;23.50;68.00;;;;;;6045536;23;20165;-90
2022/08/05 00:07:46;;;;;;;10.20;9.20;;;23.50;68.00;;;;;;6038840;23;20166;-90
2022/08/05 00:10:18;;;;;;;10.20;9.20;;;23.50;68.10;;;;;;5985199;23;20631;-90
2022/08/05 00:12:53;;;;;;;9.93;9.02;;;23.50;68.10;;;;;;5964662;23;20190;-90
2022/08/05 00:15:29;;;;;;;10.40;9.40;;;23.40;68.10;;;;;;5964976;23;20213;-90
2022/08/05 00:18:21;;;;;;;9.70;8.80;;;23.50;68.10;;;;;;5865133;24;20226;-90
2022/08/05 00:20:58;;;;;;;10.82;9.82;;;23.50;68.20;;;;;;5861367;24;20161;-90
2022/08/05 00:23:27;;;;;;;9.88;8.95;;;23.40;68.30;;;;;;5931588;24;20164;-90
2022/08/05 00:26:24;;;;;;;10.02;9.02;;;23.40;68.30;;;;;;5933896;24;20163;-90
2022/08/05 00:29:13;;;;;;;9.73;8.82;;;23.40;68.30;;;;;;5911738;24;20164;-90
2022/08/05 00:32:05;;;;;;;10.15;9.25;;;23.40;68.30;;;;;;5876699;24;20166;-90
2022/08/05 00:34:46;;;;;;;10.27;9.27;;;23.40;68.40;;;;;;5872269;24;20617;-91
2022/08/05 00:37:25;;;;;;;9.80;8.90;;;23.30;68.30;;;;;;5905002;24;20241;-91
2022/08/05 00:40:01;;;;;;;9.88;8.80;;;23.40;68.50;;;;;;5959612;24;20155;-90
2022/08/05 00:42:40;;;;;;;10.18;9.18;;;23.30;68.40;;;;;;5945615;24;20242;-91
2022/08/05 00:45:11;;;;;;;10.05;9.02;;;23.40;68.50;;;;;;5904189;24;20168;-90
2022/08/05 00:47:55;;;;;;;10.25;9.30;;;23.40;68.50;;;;;;5927412;24;20169;-91
2022/08/05 00:50:32;;;;;;;10.07;9.18;;;23.30;68.40;;;;;;5982543;23;20227;-91
2022/08/05 00:53:07;;;;;;;9.32;8.43;;;23.30;68.50;;;;;;6010344;23;20702;-90
2022/08/05 00:55:49;;;;;;;10.18;9.18;;;23.40;68.50;;;;;;6010286;23;20165;-91
2022/08/05 00:58:21;;;;;;;9.30;8.40;;;23.30;68.50;;;;;;6003893;23;20241;-90
2022/08/05 01:01:06;;;;;;;;;;;;;;;;;;;;;
2022/08/05 01:03:54;;;;;;;9.75;8.75;;;23.30;68.50;;;;;;5922788;24;20291;-91
2022/08/05 01:06:29;;;;;;;10.32;9.32;;;23.30;68.50;;;;;;5955739;24;20212;-90
2022/08/05 01:09:17;;;;;;;9.75;8.82;;;23.30;68.70;;;;;;6002208;23;20162;-90
2022/08/05 01:12:05;;;;;;;10.77;9.77;;;23.30;68.70;;;;;;5982978;23;20163;-90
2022/08/05 01:14:38;;;;;;;10.02;9.02;;;23.30;68.70;;;;;;5979432;23;20245;-91
2022/08/05 01:17:13;;;;;;;10.10;9.10;;;23.30;68.70;;;;;;5982436;23;20225;-90
2022/08/05 01:19:48;;;;;;;9.63;8.73;;;23.20;68.70;;;;;;5929326;24;20660;-90
2022/08/05 01:22:44;;;;;;;;;;;;;;;;;;;;;
2022/08/05 01:25:35;;;;;;;;;;;;;;;;;;;;;
2022/08/05 01:28:31;;;;;;;10.38;9.38;;;23.30;68.80;;;;;;6005905;23;20242;-89
2022/08/05 01:31:22;;;;;;;9.93;9.02;;;23.30;68.80;;;;;;6014042;23;20154;-90
2022/08/05 01:34:07;;;;;;;10.02;9.10;;;23.20;68.80;;;;;;6014891;23;20501;-90
2022/08/05 01:36:54;;;;;;;10.13;9.13;;;23.30;68.80;;;;;;6025939;23;20201;-90
2022/08/05 01:39:27;;;;;;;10.20;9.25;;;23.20;68.90;;;;;;6032659;23;20165;-90
2022/08/05 01:41:58;;;;;;;10.80;9.80;;;23.20;68.90;;;;;;6033220;23;20166;-90
2022/08/05 01:44:29;;;;;;;10.57;9.57;;;23.20;68.90;;;;;;6033405;23;20162;-90
2022/08/05 01:47:29;;;;;;;10.02;9.13;;;23.20;69.00;;;;;;6033879;23;20162;-89
2022/08/05 01:50:05;;;;;;;9.80;8.80;;;23.20;69.00;;;;;;5953093;24;20163;-90
2022/08/05 01:52:59;;;;;;;9.90;9.00;;;23.20;69.00;;;;;;5981549;23;20193;-89
2022/08/05 01:55:28;;;;;;;10.50;9.50;;;23.20;69.00;;;;;;5917061;24;20510;-90
2022/08/05 01:58:12;;;;;;;10.20;9.20;;;23.20;69.00;;;;;;5920804;24;20206;-90
2022/08/05 02:00:49;;;;;;;10.38;9.38;;;23.10;69.00;;;;;;5898482;24;20786;-90
2022/08/05 02:03:28;;;;;;;10.80;9.70;;;23.20;69.10;;;;;;5816408;24;20199;-90
2022/08/05 02:06:30;;;;;;;9.88;8.88;;;23.10;69.00;;;;;;5862146;24;20174;-90
2022/08/05 02:09:17;;;;;;;;;;;;;;;;;;;;;
2022/08/05 02:12:12;;;;;;;10.20;9.20;;;23.20;69.10;;;;;;5900714;24;20673;-89
2022/08/05 02:14:43;;;;;;;10.43;9.43;;;23.20;69.20;;;;;;5974053;23;20171;-90
2022/08/05 02:17:20;;;;;;;9.55;8.65;;;23.10;69.10;;;;;;5958674;24;20633;-91
2022/08/05 02:19:54;;;;;;;9.55;8.60;;;23.10;69.10;;;;;;5936464;24;20165;-90
2022/08/05 02:22:38;;;;;;;10.18;9.18;;;23.20;69.20;;;;;;6005648;23;20592;-90
2022/08/05 02:25:14;;;;;;;9.77;8.88;;;23.10;69.20;;;;;;6037869;23;20225;-90
2022/08/05 02:27:47;;;;;;;10.68;9.57;;;23.10;69.20;;;;;;6058191;23;20161;-90
2022/08/05 02:30:30;;;;;;;10.40;9.40;;;23.10;69.20;;;;;;6022286;23;20173;-90
2022/08/05 02:33:06;;;;;;;10.50;9.50;;;23.00;69.20;;;;;;6066430;23;20220;-90
2022/08/05 02:35:49;;;;;;;10.10;9.13;;;23.10;69.20;;;;;;6043014;23;20614;-90
2022/08/05 02:38:19;;;;;;;10.27;9.25;;;23.10;69.20;;;;;;6042807;23;20621;-91
2022/08/05 02:41:00;;;;;;;10.45;9.45;;;23.10;69.30;;;;;;6019777;23;20164;-90
2022/08/05 02:43:35;;;;;;;10.35;9.35;;;23.00;69.20;;;;;;6071728;23;20180;-90
2022/08/05 02:46:02;;;;;;;10.27;9.27;;;23.10;69.40;;;;;;6123759;23;20279;-90
2022/08/05 02:48:28;;;;;;;10.55;9.52;;;23.00;69.40;;;;;;6094764;23;20240;-90
2022/08/05 02:51:17;;;;;;;;;;;;;;;;;;;;;
2022/08/05 02:53:59;;;;;;;;;;;;;;;;;;;;;
2022/08/05 02:56:39;;;;;;;10.25;9.25;;;23.00;69.40;;;;;;6036955;23;20277;-90
2022/08/05 02:59:27;;;;;;;10.52;9.40;;;23.00;69.40;;;;;;5980824;24;20159;-90
2022/08/05 03:01:59;;;;;;;10.65;9.60;;;23.00;69.40;;;;;;5960858;24;20191;-90
2022/08/05 03:04:31;;;;;;;10.02;9.02;;;23.00;69.40;;;;;;5960531;24;20205;-90
2022/08/05 03:07:03;;;;;;;10.32;9.35;;;23.00;69.40;;;;;;5955125;24;20469;-90
2022/08/05 03:09:33;;;;;;;10.90;9.80;;;23.00;69.50;;;;;;5931960;24;20187;-90
2022/08/05 03:12:03;;;;;;;10.57;9.57;;;23.00;69.50;;;;;;5960161;24;20159;-91
2022/08/05 03:14:46;;;;;;;10.32;9.40;;;22.90;69.50;;;;;;5961028;24;20159;-90
2022/08/05 03:17:28;;;;;;;10.43;9.43;;;23.00;69.50;;;;;;5960479;24;20255;-91
2022/08/05 03:20:02;;;;;;;10.43;9.43;;;23.00;69.50;;;;;;5978074;23;20182;-91
2022/08/05 03:22:35;;;;;;;9.95;9.05;;;23.00;69.50;;;;;;6050485;23;20187;-90
2022/08/05 03:25:04;;;;;;;9.95;9.05;;;23.00;69.50;;;;;;6161077;23;20542;-89
2022/08/05 03:27:38;;;;;;;10.75;9.65;;;23.00;69.50;;;;;;6111983;23;20159;-90
2022/08/05 03:30:08;;;;;;;10.07;9.15;;;23.00;69.50;;;;;;6137625;23;20178;-91
2022/08/05 03:32:39;;;;;;;10.38;9.38;;;23.00;69.50;;;;;;6160343;23;20209;-90
2022/08/05 03:35:12;;;;;;;10.10;9.10;;;23.00;69.40;;;;;;6101604;23;20164;-91
2022/08/05 03:37:49;;;;;;;10.52;9.52;;;23.00;69.40;;;;;;6067670;23;20230;-90
2022/08/05 03:40:18;;;;;;;10.13;9.20;;;23.00;69.40;;;;;;6096488;23;20160;-90
2022/08/05 03:42:57;;;;;;;9.82;8.82;;;23.00;69.40;;;;;;6096538;23;20238;-90
2022/08/05 03:45:26;;;;;;;10.50;9.50;;;23.00;69.40;;;;;;6068190;23;20181;-90
2022/08/05 03:47:57;;;;;;;10.40;9.40;;;23.00;69.30;;;;;;6092791;23;20165;-91
2022/08/05 03:50:28;;;;;;;10.45;9.45;;;23.10;69.30;;;;;;6067689;23;20161;-90
2022/08/05 03:53:07;;;;;;;10.55;9.55;;;23.00;69.30;;;;;;6043686;23;20241;-90
2022/08/05 03:55:41;;;;;;;11.15;10.05;;;23.00;69.40;;;;;;6011178;23;20186;-90
2022/08/05 03:58:20;;;;;;;10.88;9.77;;;23.00;69.40;;;;;;5988068;23;20158;-89
2022/08/05 04:00:59;;;;;;;10.77;9.68;;;23.00;69.30;;;;;;6000696;23;20173;-91
2022/08/05 04:03:34;;;;;;;10.85;9.77;;;23.00;69.30;;;;;;6008263;23;20213;-90
2022/08/05 04:06:08;;;;;;;10.43;9.40;;;23.10;69.30;;;;;;6043617;23;20161;-91
2022/08/05 04:08:43;;;;;;;10.20;9.20;;;23.00;69.40;;;;;;6003066;23;20679;-90
2022/08/05 04:11:16;;;;;;;10.52;9.43;;;23.00;69.40;;;;;;6108061;23;20163;-89
2022/08/05 04:13:51;;;;;;;10.55;9.55;;;23.00;69.40;;;;;;6101199;23;20612;-90
2022/08/05 04:16:22;;;;;;;10.68;9.68;;;23.00;69.40;;;;;;6056959;23;20215;-90
2022/08/05 04:19:14;;;;;;;10.55;9.55;;;23.00;69.20;;;;;;6096781;23;20153;-90
2022/08/05 04:21:47;;;;;;;10.48;9.48;;;23.00;69.20;;;;;;6101537;23;20156;-90
2022/08/05 04:24:14;;;;;;;10.40;9.40;;;23.10;69.20;;;;;;6075569;23;20161;-90
2022/08/05 04:26:45;;;;;;;10.23;9.25;;;23.00;69.10;;;;;;6043442;23;20549;-90
2022/08/05 04:29:18;;;;;;;10.68;9.68;;;23.00;70.00;;;;;;6091882;23;20158;-90
2022/08/05 04:31:54;;;;;;;10.77;9.77;;;23.00;69.20;;;;;;6090685;23;20165;-90
2022/08/05 04:34:32;;;;;;;10.48;9.52;;;23.10;69.20;;;;;;6090846;23;20614;-89
2022/08/05 04:36:59;;;;;;;9.65;8.75;;;23.00;69.20;;;;;;6067368;23;20540;-90
2022/08/05 04:39:36;;;;;;;11.10;10.00;;;23.00;69.20;;;;;;6067921;23;20196;-90
2022/08/05 04:42:06;;;;;;;10.60;9.60;;;23.00;69.20;;;;;;6020721;23;20632;-89
2022/08/05 04:44:35;;;;;;;10.75;9.75;;;23.00;69.20;;;;;;6101568;23;20129;-90
2022/08/05 04:47:05;;;;;;;10.20;9.27;;;23.10;69.30;;;;;;6043862;23;20558;-91
2022/08/05 04:49:42;;;;;;;10.30;9.30;;;23.00;69.20;;;;;;6042718;23;20167;-91
2022/08/05 04:52:12;;;;;;;10.50;9.50;;;23.00;69.40;;;;;;6075337;23;20194;-90
2022/08/05 04:54:42;;;;;;;10.48;9.48;;;23.00;69.30;;;;;;6130360;23;20147;-90
2022/08/05 04:57:09;;;;;;;10.80;9.75;;;23.00;69.40;;;;;;6155177;23;20199;-91
2022/08/05 04:59:43;;;;;;;9.88;8.98;;;23.00;69.30;;;;;;6194394;23;20156;-89
2022/08/05 05:02:16;;;;;;;10.82;9.82;;;23.00;69.50;;;;;;6195406;23;20199;-91
2022/08/05 05:04:45;;;;;;;11.07;9.98;;;23.00;69.10;;;;;;6152996;23;20236;-90
2022/08/05 05:07:20;;;;;;;10.15;9.25;;;23.10;70.40;;;;;;6135645;23;20166;-91
2022/08/05 05:10:04;;;;;;;10.77;9.73;;;23.10;71.30;;;;;;6135157;23;20477;-91
2022/08/05 05:12:40;;;;;;;10.85;9.85;;;23.00;72.00;;;;;;6125264;23;20199;-91
2022/08/05 05:15:10;;;;;;;10.88;9.88;;;23.00;73.20;;;;;;6100623;23;20178;-90
2022/08/05 05:17:48;;;;;;;11.07;9.98;;;22.90;73.60;;;;;;6120482;23;20151;-90
2022/08/05 05:20:21;;;;;;;11.25;10.20;;;22.90;74.70;;;;;;6182673;23;20209;-91
2022/08/05 05:22:49;;;;;;;10.82;9.82;;;22.90;75.20;;;;;;6159864;23;20193;-90
2022/08/05 05:25:19;;;;;;;10.85;9.85;;;22.80;75.50;;;;;;6125217;23;20247;-90
2022/08/05 05:27:55;;;;;;;11.90;10.80;;;22.80;76.00;;;;;;6125023;23;20202;-90
2022/08/05 05:30:29;;;;;;;11.60;10.50;;;22.80;76.40;;;;;;6095994;23;20207;-90
2022/08/05 05:33:04;;;;;;;11.73;10.63;;;22.70;76.90;;;;;;6095557;23;20620;-90
2022/08/05 05:35:32;;;;;;;11.57;10.48;;;22.70;77.20;;;;;;6124734;23;20195;-90
2022/08/05 05:38:01;;;;;;;11.60;10.50;;;22.70;77.70;;;;;;6095390;23;20236;-90
2022/08/05 05:40:30;;;;;;;11.27;10.25;;;22.70;78.10;;;;;;6071288;23;20156;-90
2022/08/05 05:43:05;;;;;;;12.60;11.40;;;22.70;78.60;;;;;;6071515;23;20168;-90
2022/08/05 05:45:38;;;;;;;11.52;10.43;;;22.70;78.80;;;;;;6092430;23;20156;-90
2022/08/05 05:48:26;;;;;;;11.10;10.10;;;22.70;79.10;;;;;;6087391;23;20155;-90
2022/08/05 05:50:57;;;;;;;11.52;10.43;;;22.70;79.30;;;;;;6102637;23;20192;-90
2022/08/05 05:53:27;;;;;;;12.35;11.15;;;22.70;79.80;;;;;;6054978;23;20183;-90
2022/08/05 05:55:56;;;;;;;11.20;10.20;;;22.70;80.10;;;;;;6110641;23;20201;-91
2022/08/05 05:58:24;;;;;;;11.68;10.57;;;22.60;80.40;;;;;;6132452;23;20707;-90
2022/08/05 06:00:55;;;;;;;11.75;10.65;;;22.60;80.90;;;;;;5998395;23;20163;-90
2022/08/05 06:03:24;;;;;;;12.45;11.25;;;22.60;81.30;;;;;;6147040;23;20219;-90
2022/08/05 06:06:10;;;;;;;11.00;10.00;;;22.60;81.70;;;;;;6102349;23;20166;-90
2022/08/05 06:08:41;;;;;;;12.07;10.98;;;22.70;82.00;;;;;;6075669;23;20164;-90
2022/08/05 06:11:23;;;;;;;12.63;11.43;;;22.60;82.10;;;;;;6043287;23;20513;-90
2022/08/05 06:14:03;;;;;;;11.70;10.65;;;22.60;82.60;;;;;;6020664;23;20641;-90
2022/08/05 06:16:35;;;;;;;11.85;10.75;;;22.60;82.90;;;;;;5909040;23;20161;-90
2022/08/05 06:19:07;;;;;;;12.57;11.38;;;22.60;83.30;;;;;;5899316;23;20221;-91
2022/08/05 06:21:46;;;;;;;12.35;11.25;;;22.60;83.60;;;;;;6066913;23;20213;-90
2022/08/05 06:24:28;;;;;;;12.00;10.90;;;22.70;83.80;;;;;;6042347;23;20613;-90
2022/08/05 06:27:23;;;;;;;12.68;11.48;;;22.60;84.10;;;;;;6066405;23;20162;-91
2022/08/05 06:29:52;;;;;;;12.02;10.88;;;22.60;84.30;;;;;;6043477;23;20163;-90
2022/08/05 06:32:36;;;;;;;13.05;11.77;;;22.60;84.70;;;;;;6107000;23;20191;-90
2022/08/05 06:35:11;;;;;;;13.40;12.10;;;22.60;84.90;;;;;;6166969;23;20508;-89
2022/08/05 06:38:03;;;;;;;12.98;11.77;;;22.60;85.30;;;;;;6208806;23;20233;-89
2022/08/05 06:44:58;;;;;;;13.32;12.10;;;22.60;85.70;;;;;;6213858;23;20154;-90
2022/08/05 06:47:27;;;;;;;12.95;11.75;;;22.60;86.10;;;;;;6129792;23;20243;-90
2022/08/05 07:25:43;;;;;;;14.63;13.23;;;23.00;83.50;;;;;;6225694;23;20194;-88
2022/08/05 07:28:18;;;;;;;14.63;13.23;;;23.00;83.50;;;;;;6161626;23;20156;-89
2022/08/05 07:30:46;;;;;;;14.75;13.35;;;23.00;83.50;;;;;;6152614;23;20186;-88
2022/08/05 07:33:16;;;;;;;15.48;13.88;;;23.10;83.30;;;;;;6191279;23;20218;-89
2022/08/05 07:35:47;;;;;;;13.88;12.57;;;23.10;83.00;;;;;;6187312;23;20182;-88
2022/08/05 07:38:14;;;;;;;14.70;13.30;;;23.20;82.70;;;;;;6161101;23;20156;-89
2022/08/05 07:40:40;;;;;;;14.20;12.90;;;23.20;82.30;;;;;;6186068;23;20225;-89
2022/08/05 07:43:12;;;;;;;14.27;12.88;;;23.20;82.10;;;;;;6190206;23;20168;-89
2022/08/05 07:45:44;;;;;;;14.57;13.18;;;23.30;82.10;;;;;;6183356;23;20245;-89
2022/08/05 07:48:11;;;;;;;15.80;14.30;;;23.30;81.80;;;;;;6103531;23;20231;-88
2022/08/05 07:50:37;;;;;;;14.32;12.93;;;23.40;81.30;;;;;;6097340;23;20189;-89
2022/08/05 07:53:03;;;;;;;14.75;13.35;;;23.30;81.50;;;;;;6080586;23;20193;-89
2022/08/05 07:55:40;;;;;;;14.60;13.20;;;23.40;80.90;;;;;;6109114;23;20156;-90
2022/08/05 07:58:06;;;;;;;13.93;12.63;;;23.40;81.30;;;;;;6052064;23;20153;-89
2022/08/05 08:00:36;;;;;;;13.85;12.55;;;23.40;80.80;;;;;;6044152;23;20158;-89
2022/08/05 08:03:18;;;;;;;14.30;12.90;;;23.50;80.70;;;;;;6058882;23;20168;-89
2022/08/05 08:05:51;;;;;;;14.38;12.98;;;23.50;80.40;;;;;;6117442;23;20171;-89
2022/08/05 08:08:20;;;;;;;15.75;14.25;;;23.50;80.30;;;;;;6115857;23;20163;-90
2022/08/05 08:10:59;;;;;;;15.75;14.05;;;23.50;80.60;;;;;;6115419;23;20160;-89
2022/08/05 08:13:27;;;;;;;14.25;12.95;;;23.60;80.30;;;;;;6086521;23;20194;-89
2022/08/05 08:16:08;;;;;;;15.77;14.27;;;23.60;80.50;;;;;;6111009;23;20153;-89
2022/08/05 08:18:44;;;;;;;14.60;13.20;;;23.60;80.10;;;;;;6078899;23;20158;-88
2022/08/05 08:21:14;;;;;;;15.00;13.50;;;23.70;80.10;;;;;;6074841;23;20154;-89
2022/08/05 08:23:42;;;;;;;14.98;13.57;;;23.70;79.70;;;;;;6052225;23;20234;-89
2022/08/05 08:26:13;;;;;;;15.20;13.77;;;23.60;79.60;;;;;;6035591;23;20276;-89
2022/08/05 08:28:42;;;;;;;15.35;13.85;;;23.70;79.90;;;;;;6052075;23;20198;-89
2022/08/05 08:31:23;;;;;;;14.43;13.02;;;23.70;80.00;;;;;;6050960;23;20162;-89
2022/08/05 08:33:51;;;;;;;14.73;13.32;;;23.70;79.80;;;;;;5999808;23;20545;-89
2022/08/05 08:36:18;;;;;;;15.07;13.65;;;23.80;79.70;;;;;;5978057;23;20154;-90
2022/08/05 08:38:46;;;;;;;13.35;12.05;;;23.80;79.60;;;;;;5981926;23;20158;-89
2022/08/05 08:41:16;;;;;;;14.73;13.40;;;23.70;79.70;;;;;;5944756;24;20155;-89
2022/08/05 08:43:45;;;;;;;15.07;13.48;;;23.70;79.40;;;;;;5954049;23;20232;-90
2022/08/05 08:46:19;;;;;;;14.05;12.65;;;23.80;79.50;;;;;;6023214;23;20169;-89
2022/08/05 08:48:47;;;;;;;14.18;12.88;;;23.80;79.50;;;;;;6022874;23;20614;-89
2022/08/05 08:51:13;;;;;;;14.80;13.40;;;23.80;79.40;;;;;;6040164;23;20641;-89
2022/08/05 08:53:40;;;;;;;13.20;11.70;;;23.80;79.40;;;;;;6075250;23;20205;-90
2022/08/05 08:56:06;;;;;;;14.65;13.25;;;23.80;79.30;;;;;;6026750;23;20181;-89
2022/08/05 08:58:32;;;;;;;14.15;12.82;;;23.90;79.30;;;;;;6076136;23;20623;-89
2022/08/05 09:01:04;;;;;;;12.95;11.75;;;23.90;79.20;;;;;;6066304;23;20156;-89
2022/08/05 09:03:32;;;;;;;14.70;13.35;;;23.90;78.90;;;;;;6088114;23;20156;-89
2022/08/05 09:05:58;;;;;;;14.25;12.88;;;23.80;79.00;;;;;;6124102;23;20161;-89
2022/08/05 09:08:27;;;;;;;13.65;12.35;;;23.90;78.90;;;;;;6148599;23;20511;-90
2022/08/05 09:10:57;;;;;;;15.15;13.70;;;23.90;78.60;;;;;;6117351;23;20159;-89
2022/08/05 09:13:25;;;;;;;13.35;12.07;;;23.90;79.50;;;;;;6166502;23;20187;-90
2022/08/05 09:15:52;;;;;;;12.80;11.50;;;23.90;78.60;;;;;;6143166;23;20184;-89
2022/08/05 09:18:18;;;;;;;13.82;12.52;;;23.90;78.30;;;;;;6167740;23;20184;-89
2022/08/05 09:20:45;;;;;;;13.65;12.35;;;24.00;78.10;;;;;;6143150;23;20156;-89
2022/08/05 09:23:13;;;;;;;14.90;13.48;;;23.90;78.30;;;;;;6195768;23;20150;-90
2022/08/05 09:25:41;;;;;;;14.52;13.13;;;23.90;78.30;;;;;;6231478;22;20193;-89
2022/08/05 09:28:22;;;;;;;14.13;12.73;;;23.90;78.40;;;;;;6236639;22;20149;-89
2022/08/05 09:31:06;;;;;;;13.93;12.52;;;23.90;78.40;;;;;;6236293;22;20194;-89
2022/08/05 09:34:04;;;;;;;14.43;13.00;;;23.90;78.50;;;;;;6261270;22;20263;-91
2022/08/05 09:36:50;;;;;;;;;;;;;;;;;;;;;
2022/08/05 09:39:19;;;;;;;14.52;13.13;;;23.90;78.10;;;;;;6258663;22;20172;-89
2022/08/05 09:41:57;;;;;;;13.65;12.35;;;24.00;77.80;;;;;;6296330;22;20156;-89
2022/08/05 09:44:45;;;;;;;14.10;12.70;;;24.00;77.80;;;;;;6227681;23;20232;-90
2022/08/05 09:47:17;;;;;;;13.15;11.90;;;24.00;77.60;;;;;;6144428;23;20171;-89
2022/08/05 09:49:56;;;;;;;11.77;10.68;;;24.00;77.50;;;;;;6120726;23;20159;-89
2022/08/05 09:52:27;;;;;;;13.27;12.07;;;24.00;76.90;;;;;;6096202;23;20174;-89
2022/08/05 09:55:09;;;;;;;13.65;12.35;;;24.00;76.50;;;;;;6093758;23;20159;-89
2022/08/05 09:57:40;;;;;;;13.85;12.57;;;24.10;76.70;;;;;;6094121;23;20162;-89
2022/08/05 10:00:10;;;;;;;12.75;11.55;;;24.00;76.40;;;;;;6095064;23;20159;-89
2022/08/05 10:02:40;;;;;;;12.90;11.60;;;24.00;76.60;;;;;;6095973;23;20269;-89
2022/08/05 10:05:09;;;;;;;13.52;12.23;;;24.00;76.30;;;;;;6095260;23;20170;-89
2022/08/05 10:07:47;;;;;;;14.32;12.93;;;24.10;76.00;;;;;;6173228;23;20573;-90
2022/08/05 10:10:14;;;;;;;14.70;13.30;;;24.00;76.60;;;;;;6288888;22;20241;-89
2022/08/05 10:12:42;;;;;;;13.50;12.10;;;24.00;76.30;;;;;;6238050;22;20176;-89
2022/08/05 10:15:27;;;;;;;13.57;12.02;;;24.10;76.20;;;;;;6211800;22;20267;-90
2022/08/05 10:18:14;;;;;;;14.20;12.80;;;24.10;75.60;;;;;;6289046;22;20155;-89
2022/08/05 10:20:46;;;;;;;13.40;12.02;;;24.10;76.10;;;;;;6292757;22;20220;-90
2022/08/05 10:23:30;;;;;;;13.50;12.07;;;24.00;76.10;;;;;;6292080;22;20156;-90
2022/08/05 10:26:02;;;;;;;12.18;11.05;;;24.00;75.90;;;;;;6265767;22;20195;-89
2022/08/05 10:28:31;;;;;;;12.10;11.00;;;24.10;75.70;;;;;;6291588;22;20192;-90
2022/08/05 10:31:04;;;;;;;12.50;11.35;;;24.10;75.60;;;;;;6291480;22;20152;-88
2022/08/05 10:33:34;;;;;;;12.43;11.23;;;24.00;75.70;;;;;;6293300;22;20242;-89
2022/08/05 10:36:13;;;;;;;13.15;11.88;;;24.10;75.40;;;;;;6283146;22;20168;-89
2022/08/05 10:41:59;;;;;;;11.65;10.45;;;24.10;75.10;;;;;;6049488;23;20158;-89
2022/08/05 10:44:36;;;;;;;12.02;10.93;;;24.20;74.60;;;;;;6056437;23;20157;-90
2022/08/05 10:47:11;;;;;;;13.35;12.05;;;24.10;74.50;;;;;;6055010;23;20188;-89
2022/08/05 10:50:01;;;;;;;12.60;11.30;;;24.10;74.90;;;;;;6055323;23;20198;-89
2022/08/05 10:52:51;;;;;;;12.32;11.02;;;24.10;75.00;;;;;;6055092;23;20663;-89
2022/08/05 10:55:17;;;;;;;11.70;10.52;;;24.10;74.60;;;;;;6056744;23;20153;-90
2022/08/05 10:57:45;;;;;;;12.02;10.90;;;24.20;74.40;;;;;;6031314;23;20196;-90
2022/08/05 11:00:13;;;;;;;12.10;10.85;;;24.20;74.30;;;;;;6050700;23;20267;-89
2022/08/05 11:03:09;;;;;;;12.18;10.98;;;24.20;74.60;;;;;;6066529;23;20167;-90
2022/08/05 11:06:23;;;;;;;13.05;11.65;;;24.20;74.60;;;;;;6108980;23;20201;-89
2022/08/05 11:09:20;;;;;;;12.40;11.10;;;24.20;74.70;;;;;;6146621;23;20155;-88
2022/08/05 11:11:58;;;;;;;14.07;10.73;;;24.20;74.60;;;;;;6162722;23;20174;-89
2022/08/05 11:14:28;;;;;;;16.13;11.68;;;24.20;74.70;;;;;;6113335;23;20197;-90
2022/08/05 11:17:27;;;;;;;12.82;11.48;;;24.10;75.00;;;;;;6113224;23;20152;-90
2022/08/05 11:19:54;;;;;;;14.15;11.15;;;24.10;74.90;;;;;;6135644;23;20156;-90
2022/08/05 11:22:42;;;;;;;14.05;11.07;;;24.10;74.80;;;;;;6114784;23;20214;-90
2022/08/05 11:25:29;;;;;;;13.00;11.65;;;24.10;74.90;;;;;;6168354;23;20675;-89
2022/08/05 11:28:07;;;;;;;15.82;11.88;;;24.10;75.20;;;;;;6196205;23;20155;-90
2022/08/05 11:30:33;;;;;;;16.00;11.50;;;24.10;75.50;;;;;;6193982;22;20160;-89
2022/08/05 11:33:40;;;;;;;14.65;11.23;;;24.10;75.40;;;;;;6261661;22;20210;-88
2022/08/05 11:36:07;;;;;;;13.10;10.93;;;24.10;75.50;;;;;;6263469;22;20163;-89
2022/08/05 11:38:55;;;;;;;12.85;10.90;;;24.10;75.60;;;;;;6239419;22;20149;-89
2022/08/05 11:41:22;;;;;;;11.65;10.50;;;24.10;75.40;;;;;;6219531;22;20149;-89
2022/08/05 11:43:59;;;;;;;11.88;10.60;;;24.20;75.20;;;;;;6212923;22;20176;-88
2022/08/05 11:46:40;;;;;;;14.68;11.07;;;24.20;75.20;;;;;;6298489;22;20158;-89
2022/08/05 11:49:06;;;;;;;12.93;10.85;;;24.20;75.30;;;;;;6301329;22;20270;-90
2022/08/05 11:51:44;;;;;;;11.27;10.18;;;24.10;75.50;;;;;;6271622;22;20151;-89
2022/08/05 11:54:28;;;;;;;11.45;10.25;;;24.20;75.40;;;;;;6264129;22;20203;-89
2022/08/05 11:57:07;;;;;;;12.52;11.27;;;24.20;75.30;;;;;;6245397;22;20152;-89
2022/08/05 11:59:44;;;;;;;11.88;10.68;;;24.10;75.20;;;;;;6211062;23;20157;-89
2022/08/05 12:02:14;;;;;;;12.57;10.45;;;24.10;75.40;;;;;;6237559;23;20691;-89
2022/08/05 12:04:45;;;;;;;12.60;11.23;;;24.20;75.60;;;;;;6209868;23;20220;-90
2022/08/05 12:11:46;;;;;;;12.55;11.30;;;24.20;75.70;;;;;;6261336;23;20572;-90
2022/08/05 12:26:42;;;;;;;;;;;;;;;;;;;;;
2022/08/05 12:55:36;;;;;;;10.98;9.52;;;24.10;81.60;;;;;;6103988;22;1465679;-87
2022/08/05 12:58:04;;;;;;;10.80;9.70;;;24.10;82.50;;;;;;6123907;23;20214;-89
2022/08/05 13:00:34;;;;;;;10.30;9.20;;;24.00;82.90;;;;;;6124077;23;20223;-89
2022/08/05 13:03:00;;;;;;;11.40;10.20;;;24.00;83.30;;;;;;6101860;23;20211;-88
2022/08/05 13:05:30;;;;;;;10.48;9.48;;;23.90;83.80;;;;;;6098385;23;20154;-89
2022/08/05 13:08:16;;;;;;;10.32;9.35;;;23.90;84.20;;;;;;6099732;23;20231;-89
2022/08/05 13:10:44;;;;;;;10.65;9.60;;;23.90;84.70;;;;;;6124940;23;20194;-89
2022/08/05 13:13:15;;;;;;;11.00;9.93;;;23.90;85.10;;;;;;6125476;23;20559;-90
2022/08/05 13:15:50;;;;;;;11.25;10.15;;;23.90;85.50;;;;;;6124402;23;20189;-88
2022/08/05 13:18:20;;;;;;;10.20;9.20;;;23.80;85.60;;;;;;6120926;23;20155;-89
2022/08/05 13:20:46;;;;;;;10.10;9.20;;;23.80;86.10;;;;;;6096264;23;20487;-90
2022/08/05 13:23:16;;;;;;;11.05;9.98;;;23.70;86.50;;;;;;6091073;23;20173;-92
2022/08/05 13:25:44;;;;;;;9.50;8.60;;;23.80;86.70;;;;;;6091184;23;20146;-91
2022/08/05 13:28:13;;;;;;;10.38;9.38;;;23.70;86.80;;;;;;6089416;23;20285;-90
2022/08/05 13:30:38;;;;;;;10.38;9.38;;;23.70;87.00;;;;;;6114834;23;20147;-90
2022/08/05 13:33:05;;;;;;;10.27;9.27;;;23.70;87.20;;;;;;6088459;23;20258;-89
2022/08/05 13:35:35;;;;;;;10.98;9.88;;;23.70;87.60;;;;;;6112556;23;20139;-90
2022/08/05 13:38:01;;;;;;;9.88;8.93;;;23.70;87.70;;;;;;6090411;23;20143;-89
2022/08/05 13:40:27;;;;;;;10.02;9.13;;;23.70;87.80;;;;;;6088631;23;20167;-89
2022/08/05 13:42:54;;;;;;;10.15;9.18;;;23.60;87.80;;;;;;6088213;23;20171;-90
2022/08/05 13:45:22;;;;;;;10.52;9.50;;;23.50;88.10;;;;;;6112645;23;20132;-90
2022/08/05 13:47:53;;;;;;;11.45;10.00;;;23.50;88.30;;;;;;6112536;23;20138;-90
2022/08/05 13:50:19;;;;;;;10.05;8.77;;;23.50;88.60;;;;;;6172126;23;20233;-90
2022/08/05 13:52:47;;;;;;;10.00;9.10;;;23.50;89.00;;;;;;6042221;23;20196;-90
2022/08/05 13:55:12;;;;;;;10.65;9.55;;;23.40;89.20;;;;;;6034437;23;20228;-90
2022/08/05 13:57:43;;;;;;;10.63;9.52;;;23.40;89.50;;;;;;5987167;23;20232;-90
2022/08/05 14:00:10;;;;;;;10.77;9.68;;;23.40;89.80;;;;;;5988196;23;20162;-88
2022/08/05 14:02:39;;;;;;;9.75;8.75;;;23.30;90.00;;;;;;5982713;23;20634;-90
2022/08/05 14:05:14;;;;;;;9.68;8.68;;;23.40;90.20;;;;;;6156522;23;20159;-90
2022/08/05 14:07:41;;;;;;;9.95;8.85;;;23.30;90.20;;;;;;6097098;23;20189;-90
2022/08/05 14:10:13;;;;;;;10.95;9.50;;;23.40;90.30;;;;;;6130518;23;20151;-90
2022/08/05 14:12:39;;;;;;;10.05;9.15;;;23.30;90.30;;;;;;6155954;23;20193;-90
2022/08/05 14:15:05;;;;;;;10.20;9.20;;;23.30;90.50;;;;;;6130911;23;20158;-90
2022/08/05 14:17:31;;;;;;;10.02;9.02;;;23.30;90.50;;;;;;6156000;23;20183;-90
2022/08/05 14:19:59;;;;;;;9.93;8.90;;;23.20;90.60;;;;;;6157310;23;20194;-90
2022/08/05 14:22:24;;;;;;;9.52;8.73;;;23.20;90.70;;;;;;6045664;23;20185;-90
2022/08/05 14:24:51;;;;;;;9.60;8.70;;;23.20;90.90;;;;;;6040175;23;20160;-90
2022/08/05 14:27:18;;;;;;;8.40;7.60;;;23.30;90.90;;;;;;6039495;23;20157;-90
2022/08/05 14:29:45;;;;;;;9.05;8.15;;;23.30;90.90;;;;;;6039265;23;20318;-90
2022/08/05 14:32:11;;;;;;;8.65;7.85;;;23.30;91.00;;;;;;6039464;23;20138;-89
2022/08/05 14:34:36;;;;;;;8.23;7.53;;;23.30;91.10;;;;;;6039336;23;20153;-90
2022/08/05 14:37:03;;;;;;;7.97;7.22;;;23.30;91.00;;;;;;6039592;23;20500;-90
2022/08/05 14:39:29;;;;;;;8.65;7.80;;;23.30;90.90;;;;;;6051676;23;20548;-90
2022/08/05 14:41:57;;;;;;;8.00;7.20;;;23.30;90.80;;;;;;6068804;23;20184;-90
2022/08/05 14:44:23;;;;;;;7.70;7.00;;;23.30;90.80;;;;;;6069434;23;20202;-89
2022/08/05 14:46:48;;;;;;;7.63;6.95;;;23.30;90.90;;;;;;6068843;23;20153;-90
2022/08/05 14:49:14;;;;;;;8.48;7.65;;;23.30;91.00;;;;;;6069218;23;20149;-89